sensor_id;sensor_type;location;lat;lon;timestamp;temperature;humidity
67101;DHT22;54019;61.746;16.106;2023-05-01T00:01:55;21.60;26.20
67101;DHT22;54019;61.746;16.106;2023-05-01T00:04:39;21.50;26.80
67101;DHT22;54019;61.746;16.106;2023-05-01T00:07:24;21.50;26.30
67101;DHT22;54019;61.746;16.106;2023-05-01T00:10:08;21.40;26.20
67101;DHT22;54019;61.746;16.106;2023-05-01T00:12:52;21.40;26.30
67101;DHT22;54019;61.746;16.106;2023-05-01T00:15:40;21.30;26.40
67101;DHT22;54019;61.746;16.106;2023-05-01T00:18:24;21.30;26.50
67101;DHT22;54019;61.746;16.106;2023-05-01T00:21:08;21.30;26.70
67101;DHT22;54019;61.746;16.106;2023-05-01T00:23:53;21.30;27.30
67101;DHT22;54019;61.746;16.106;2023-05-01T00:26:37;21.40;27.30
67101;DHT22;54019;61.746;16.106;2023-05-01T00:29:21;21.40;27.20
67101;DHT22;54019;61.746;16.106;2023-05-01T00:32:07;21.40;26.40
67101;DHT22;54019;61.746;16.106;2023-05-01T00:34:52;21.50;26.10
67101;DHT22;54019;61.746;16.106;2023-05-01T00:37:36;21.60;26.00
67101;DHT22;54019;61.746;16.106;2023-05-01T00:40:20;21.60;26.00
67101;DHT22;54019;61.746;16.106;2023-05-01T00:43:05;21.60;26.00
67101;DHT22;54019;61.746;16.106;2023-05-01T00:45:49;21.60;26.00
67101;DHT22;54019;61.746;16.106;2023-05-01T00:48:35;21.60;26.00
67101;DHT22;54019;61.746;16.106;2023-05-01T00:51:20;21.60;26.00
67101;DHT22;54019;61.746;16.106;2023-05-01T00:54:04;21.60;26.00
67101;DHT22;54019;61.746;16.106;2023-05-01T00:56:50;21.60;26.00
67101;DHT22;54019;61.746;16.106;2023-05-01T00:59:35;21.60;26.10
67101;DHT22;54019;61.746;16.106;2023-05-01T01:02:20;21.50;26.80
67101;DHT22;54019;61.746;16.106;2023-05-01T01:05:06;21.50;26.50
67101;DHT22;54019;61.746;16.106;2023-05-01T01:07:55;21.50;26.60
67101;DHT22;54019;61.746;16.106;2023-05-01T01:10:49;21.40;27.00
67101;DHT22;54019;61.746;16.106;2023-05-01T01:13:39;21.40;27.00
67101;DHT22;54019;61.746;16.106;2023-05-01T01:16:32;21.40;26.70
67101;DHT22;54019;61.746;16.106;2023-05-01T01:19:43;21.50;26.70
67101;DHT22;54019;61.746;16.106;2023-05-01T01:22:33;21.50;26.10
67101;DHT22;54019;61.746;16.106;2023-05-01T01:25:48;21.60;25.90
67101;DHT22;54019;61.746;16.106;2023-05-01T01:28:52;21.60;25.80
67101;DHT22;54019;61.746;16.106;2023-05-01T01:31:50;21.70;25.90
67101;DHT22;54019;61.746;16.106;2023-05-01T01:34:43;21.70;25.90
67101;DHT22;54019;61.746;16.106;2023-05-01T01:37:34;21.60;25.80
67101;DHT22;54019;61.746;16.106;2023-05-01T01:40:24;21.60;25.90
67101;DHT22;54019;61.746;16.106;2023-05-01T01:43:12;21.60;25.80
67101;DHT22;54019;61.746;16.106;2023-05-01T01:46:02;21.60;25.90
67101;DHT22;54019;61.746;16.106;2023-05-01T01:48:49;21.60;26.00
67101;DHT22;54019;61.746;16.106;2023-05-01T01:51:37;21.50;26.30
67101;DHT22;54019;61.746;16.106;2023-05-01T01:54:30;21.60;26.20
67101;DHT22;54019;61.746;16.106;2023-05-01T01:57:18;21.50;26.50
67101;DHT22;54019;61.746;16.106;2023-05-01T02:00:04;21.50;26.40
67101;DHT22;54019;61.746;16.106;2023-05-01T02:02:49;21.40;26.50
67101;DHT22;54019;61.746;16.106;2023-05-01T02:05:35;21.40;26.00
67101;DHT22;54019;61.746;16.106;2023-05-01T02:08:22;21.50;25.80
67101;DHT22;54019;61.746;16.106;2023-05-01T02:11:08;21.50;25.70
67101;DHT22;54019;61.746;16.106;2023-05-01T02:13:54;21.50;25.60
67101;DHT22;54019;61.746;16.106;2023-05-01T02:16:40;21.60;25.60
67101;DHT22;54019;61.746;16.106;2023-05-01T02:19:25;21.70;25.60
67101;DHT22;54019;61.746;16.106;2023-05-01T02:22:10;21.70;25.60
67101;DHT22;54019;61.746;16.106;2023-05-01T02:24:57;21.60;25.60
67101;DHT22;54019;61.746;16.106;2023-05-01T02:27:48;21.60;25.60
67101;DHT22;54019;61.746;16.106;2023-05-01T02:30:33;21.60;25.60
67101;DHT22;54019;61.746;16.106;2023-05-01T02:33:18;21.60;25.60
67101;DHT22;54019;61.746;16.106;2023-05-01T02:36:03;21.60;25.60
67101;DHT22;54019;61.746;16.106;2023-05-01T02:38:47;21.50;25.60
67101;DHT22;54019;61.746;16.106;2023-05-01T02:41:34;21.50;25.90
67101;DHT22;54019;61.746;16.106;2023-05-01T02:44:21;21.50;26.40
67101;DHT22;54019;61.746;16.106;2023-05-01T02:47:08;21.50;26.50
67101;DHT22;54019;61.746;16.106;2023-05-01T02:49:54;21.40;25.90
67101;DHT22;54019;61.746;16.106;2023-05-01T02:52:39;21.40;25.60
67101;DHT22;54019;61.746;16.106;2023-05-01T02:55:24;21.50;25.40
67101;DHT22;54019;61.746;16.106;2023-05-01T02:58:15;21.50;25.40
67101;DHT22;54019;61.746;16.106;2023-05-01T03:01:00;21.60;26.00
67101;DHT22;54019;61.746;16.106;2023-05-01T03:03:44;21.60;25.30
67101;DHT22;54019;61.746;16.106;2023-05-01T03:06:28;21.60;25.30
67101;DHT22;54019;61.746;16.106;2023-05-01T03:09:13;21.70;25.30
67101;DHT22;54019;61.746;16.106;2023-05-01T03:11:57;21.60;25.30
67101;DHT22;54019;61.746;16.106;2023-05-01T03:14:43;21.60;25.30
67101;DHT22;54019;61.746;16.106;2023-05-01T03:17:27;21.60;25.30
67101;DHT22;54019;61.746;16.106;2023-05-01T03:20:12;21.60;25.30
67101;DHT22;54019;61.746;16.106;2023-05-01T03:22:56;21.60;25.40
67101;DHT22;54019;61.746;16.106;2023-05-01T03:25:41;21.50;25.40
67101;DHT22;54019;61.746;16.106;2023-05-01T03:28:25;21.50;25.40
67101;DHT22;54019;61.746;16.106;2023-05-01T03:31:10;21.50;25.60
67101;DHT22;54019;61.746;16.106;2023-05-01T03:33:55;21.40;25.80
67101;DHT22;54019;61.746;16.106;2023-05-01T03:36:39;21.40;25.80
67101;DHT22;54019;61.746;16.106;2023-05-01T03:39:23;21.50;25.50
67101;DHT22;54019;61.746;16.106;2023-05-01T03:42:07;21.50;25.30
67101;DHT22;54019;61.746;16.106;2023-05-01T03:44:52;21.60;25.20
67101;DHT22;54019;61.746;16.106;2023-05-01T03:47:37;21.60;25.20
67101;DHT22;54019;61.746;16.106;2023-05-01T03:50:22;21.60;25.20
67101;DHT22;54019;61.746;16.106;2023-05-01T03:53:06;21.70;25.20
67101;DHT22;54019;61.746;16.106;2023-05-01T03:55:51;21.70;25.20
67101;DHT22;54019;61.746;16.106;2023-05-01T03:58:35;21.70;25.20
67101;DHT22;54019;61.746;16.106;2023-05-01T04:01:19;21.70;25.10
67101;DHT22;54019;61.746;16.106;2023-05-01T04:04:05;21.60;25.10
67101;DHT22;54019;61.746;16.106;2023-05-01T04:06:49;21.70;25.20
67101;DHT22;54019;61.746;16.106;2023-05-01T04:09:34;21.70;25.30
67101;DHT22;54019;61.746;16.106;2023-05-01T04:12:19;21.60;25.40
67101;DHT22;54019;61.746;16.106;2023-05-01T04:15:04;21.60;25.60
67101;DHT22;54019;61.746;16.106;2023-05-01T04:17:48;21.60;25.60
67101;DHT22;54019;61.746;16.106;2023-05-01T04:20:34;21.60;25.80
67101;DHT22;54019;61.746;16.106;2023-05-01T04:23:18;21.60;25.60
67101;DHT22;54019;61.746;16.106;2023-05-01T04:26:03;21.60;25.30
67101;DHT22;54019;61.746;16.106;2023-05-01T04:28:48;21.60;25.30
67101;DHT22;54019;61.746;16.106;2023-05-01T04:31:32;21.60;25.30
67101;DHT22;54019;61.746;16.106;2023-05-01T04:34:16;21.80;25.30
67101;DHT22;54019;61.746;16.106;2023-05-01T04:37:03;21.80;25.30
67101;DHT22;54019;61.746;16.106;2023-05-01T04:39:47;21.80;25.30
67101;DHT22;54019;61.746;16.106;2023-05-01T04:42:31;21.80;25.10
67101;DHT22;54019;61.746;16.106;2023-05-01T04:45:16;21.80;25.10
67101;DHT22;54019;61.746;16.106;2023-05-01T04:48:03;21.80;25.20
67101;DHT22;54019;61.746;16.106;2023-05-01T04:50:48;21.80;25.20
67101;DHT22;54019;61.746;16.106;2023-05-01T04:53:33;21.80;25.20
67101;DHT22;54019;61.746;16.106;2023-05-01T04:56:18;21.80;25.20
67101;DHT22;54019;61.746;16.106;2023-05-01T04:59:02;21.70;25.10
67101;DHT22;54019;61.746;16.106;2023-05-01T05:01:46;21.80;25.20
67101;DHT22;54019;61.746;16.106;2023-05-01T05:04:30;21.70;25.30
67101;DHT22;54019;61.746;16.106;2023-05-01T05:07:14;21.70;25.80
67101;DHT22;54019;61.746;16.106;2023-05-01T05:10:00;21.70;25.90
67101;DHT22;54019;61.746;16.106;2023-05-01T05:12:44;21.70;25.70
67101;DHT22;54019;61.746;16.106;2023-05-01T05:15:29;21.70;26.00
67101;DHT22;54019;61.746;16.106;2023-05-01T05:18:13;21.80;26.10
67101;DHT22;54019;61.746;16.106;2023-05-01T05:20:57;21.80;26.40
67101;DHT22;54019;61.746;16.106;2023-05-01T05:23:42;21.90;26.60
67101;DHT22;54019;61.746;16.106;2023-05-01T05:26:27;22.00;26.90
67101;DHT22;54019;61.746;16.106;2023-05-01T05:29:12;22.00;26.60
67101;DHT22;54019;61.746;16.106;2023-05-01T05:31:56;22.00;26.50
67101;DHT22;54019;61.746;16.106;2023-05-01T05:34:41;22.00;26.40
67101;DHT22;54019;61.746;16.106;2023-05-01T05:40:47;22.00;26.00
67101;DHT22;54019;61.746;16.106;2023-05-01T05:43:33;22.00;26.00
67101;DHT22;54019;61.746;16.106;2023-05-01T05:46:17;22.00;25.90
67101;DHT22;54019;61.746;16.106;2023-05-01T05:49:01;22.00;25.80
67101;DHT22;54019;61.746;16.106;2023-05-01T05:51:45;22.00;25.80
67101;DHT22;54019;61.746;16.106;2023-05-01T05:54:29;22.00;25.70
67101;DHT22;54019;61.746;16.106;2023-05-01T05:57:13;22.00;25.70
67101;DHT22;54019;61.746;16.106;2023-05-01T05:59:59;22.00;25.70
67101;DHT22;54019;61.746;16.106;2023-05-01T06:02:43;22.00;25.60
67101;DHT22;54019;61.746;16.106;2023-05-01T06:05:28;22.10;25.60
67101;DHT22;54019;61.746;16.106;2023-05-01T06:08:13;22.10;25.70
67101;DHT22;54019;61.746;16.106;2023-05-01T06:10:57;22.20;25.60
67101;DHT22;54019;61.746;16.106;2023-05-01T06:13:41;22.30;25.50
67101;DHT22;54019;61.746;16.106;2023-05-01T06:16:27;22.30;25.40
67101;DHT22;54019;61.746;16.106;2023-05-01T06:19:12;22.40;25.20
67101;DHT22;54019;61.746;16.106;2023-05-01T06:21:56;22.60;25.20
67101;DHT22;54019;61.746;16.106;2023-05-01T06:24:41;22.60;24.90
67101;DHT22;54019;61.746;16.106;2023-05-01T06:27:25;22.70;25.00
67101;DHT22;54019;61.746;16.106;2023-05-01T06:30:10;22.70;24.90
67101;DHT22;54019;61.746;16.106;2023-05-01T06:32:56;22.70;24.80
67101;DHT22;54019;61.746;16.106;2023-05-01T06:35:40;22.70;24.90
67101;DHT22;54019;61.746;16.106;2023-05-01T06:38:25;22.50;25.00
67101;DHT22;54019;61.746;16.106;2023-05-01T06:41:09;22.50;25.20
67101;DHT22;54019;61.746;16.106;2023-05-01T06:43:53;22.40;25.10
67101;DHT22;54019;61.746;16.106;2023-05-01T06:46:38;22.40;25.20
67101;DHT22;54019;61.746;16.106;2023-05-01T06:49:23;22.40;25.20
67101;DHT22;54019;61.746;16.106;2023-05-01T06:52:08;22.30;25.30
67101;DHT22;54019;61.746;16.106;2023-05-01T06:54:52;22.40;25.30
67101;DHT22;54019;61.746;16.106;2023-05-01T06:57:36;22.30;25.40
67101;DHT22;54019;61.746;16.106;2023-05-01T07:00:20;22.30;25.40
67101;DHT22;54019;61.746;16.106;2023-05-01T07:03:05;22.30;25.50
67101;DHT22;54019;61.746;16.106;2023-05-01T07:05:51;22.30;25.60
67101;DHT22;54019;61.746;16.106;2023-05-01T07:08:35;22.20;25.50
67101;DHT22;54019;61.746;16.106;2023-05-01T07:11:19;22.20;25.50
67101;DHT22;54019;61.746;16.106;2023-05-01T07:14:04;22.30;25.60
67101;DHT22;54019;61.746;16.106;2023-05-01T07:16:48;22.40;25.50
67101;DHT22;54019;61.746;16.106;2023-05-01T07:19:32;22.40;25.50
67101;DHT22;54019;61.746;16.106;2023-05-01T07:22:18;22.40;25.50
67101;DHT22;54019;61.746;16.106;2023-05-01T07:25:02;22.50;25.50
67101;DHT22;54019;61.746;16.106;2023-05-01T07:27:47;22.40;25.40
67101;DHT22;54019;61.746;16.106;2023-05-01T07:30:31;22.50;25.90
67101;DHT22;54019;61.746;16.106;2023-05-01T07:33:15;22.50;25.60
67101;DHT22;54019;61.746;16.106;2023-05-01T07:35:59;22.50;25.90
67101;DHT22;54019;61.746;16.106;2023-05-01T07:38:45;22.50;25.80
67101;DHT22;54019;61.746;16.106;2023-05-01T07:41:30;22.50;25.90
67101;DHT22;54019;61.746;16.106;2023-05-01T07:44:14;22.50;25.90
67101;DHT22;54019;61.746;16.106;2023-05-01T07:47:02;22.50;25.90
67101;DHT22;54019;61.746;16.106;2023-05-01T07:49:46;22.40;25.70
67101;DHT22;54019;61.746;16.106;2023-05-01T07:52:31;22.40;25.60
67101;DHT22;54019;61.746;16.106;2023-05-01T07:55:17;22.40;25.80
67101;DHT22;54019;61.746;16.106;2023-05-01T07:58:01;22.40;25.80
67101;DHT22;54019;61.746;16.106;2023-05-01T08:00:45;22.30;25.80
67101;DHT22;54019;61.746;16.106;2023-05-01T08:03:30;22.30;25.90
67101;DHT22;54019;61.746;16.106;2023-05-01T08:06:15;22.30;25.90
67101;DHT22;54019;61.746;16.106;2023-05-01T08:08:59;22.20;25.30
67101;DHT22;54019;61.746;16.106;2023-05-01T08:11:45;22.20;25.80
67101;DHT22;54019;61.746;16.106;2023-05-01T08:14:29;22.20;26.30
67101;DHT22;54019;61.746;16.106;2023-05-01T08:17:13;22.30;26.30
67101;DHT22;54019;61.746;16.106;2023-05-01T08:19:59;22.20;26.40
67101;DHT22;54019;61.746;16.106;2023-05-01T08:22:43;22.20;26.30
67101;DHT22;54019;61.746;16.106;2023-05-01T08:25:27;22.20;26.30
67101;DHT22;54019;61.746;16.106;2023-05-01T08:28:13;22.20;26.30
67101;DHT22;54019;61.746;16.106;2023-05-01T08:30:57;22.20;26.40
67101;DHT22;54019;61.746;16.106;2023-05-01T08:33:42;22.20;26.40
67101;DHT22;54019;61.746;16.106;2023-05-01T08:36:26;22.20;26.40
67101;DHT22;54019;61.746;16.106;2023-05-01T08:39:11;22.20;26.50
67101;DHT22;54019;61.746;16.106;2023-05-01T08:41:55;22.40;26.20
67101;DHT22;54019;61.746;16.106;2023-05-01T08:44:41;22.40;26.00
67101;DHT22;54019;61.746;16.106;2023-05-01T08:47:26;22.60;26.00
67101;DHT22;54019;61.746;16.106;2023-05-01T08:50:13;22.60;25.90
67101;DHT22;54019;61.746;16.106;2023-05-01T08:53:00;22.60;25.70
67101;DHT22;54019;61.746;16.106;2023-05-01T08:55:45;22.60;25.40
67101;DHT22;54019;61.746;16.106;2023-05-01T08:58:32;22.50;25.30
67101;DHT22;54019;61.746;16.106;2023-05-01T09:01:21;22.50;25.30
67101;DHT22;54019;61.746;16.106;2023-05-01T09:04:07;22.50;25.30
67101;DHT22;54019;61.746;16.106;2023-05-01T09:06:53;22.50;25.30
67101;DHT22;54019;61.746;16.106;2023-05-01T09:09:38;22.50;25.40
67101;DHT22;54019;61.746;16.106;2023-05-01T09:12:24;22.40;25.30
